sensor_id;sensor_type;location;lat;lon;timestamp;temperature;humidity
48666;DHT22;34452;50.796;4.994;2023-11-21T00:02:05;9.80;99.90
48666;DHT22;34452;50.796;4.994;2023-11-21T00:04:31;9.90;99.90
48666;DHT22;34452;50.796;4.994;2023-11-21T00:06:57;9.80;99.90
48666;DHT22;34452;50.796;4.994;2023-11-21T00:09:24;9.80;99.90
48666;DHT22;34452;50.796;4.994;2023-11-21T00:11:50;9.90;99.90
48666;DHT22;34452;50.796;4.994;2023-11-21T00:14:16;9.90;99.90
48666;DHT22;34452;50.796;4.994;2023-11-21T00:16:42;9.90;99.90
48666;DHT22;34452;50.796;4.994;2023-11-21T00:19:07;9.90;99.90
48666;DHT22;34452;50.796;4.994;2023-11-21T00:21:33;9.90;99.90
48666;DHT22;34452;50.796;4.994;2023-11-21T00:23:59;9.90;99.90
48666;DHT22;34452;50.796;4.994;2023-11-21T00:26:24;9.90;99.90
48666;DHT22;34452;50.796;4.994;2023-11-21T00:28:50;9.90;99.90
48666;DHT22;34452;50.796;4.994;2023-11-21T00:31:16;9.90;99.90
48666;DHT22;34452;50.796;4.994;2023-11-21T00:33:42;9.90;99.90
48666;DHT22;34452;50.796;4.994;2023-11-21T00:36:09;9.90;99.90
48666;DHT22;34452;50.796;4.994;2023-11-21T00:38:35;9.90;99.90
48666;DHT22;34452;50.796;4.994;2023-11-21T00:41:01;9.90;99.90
48666;DHT22;34452;50.796;4.994;2023-11-21T00:43:28;9.90;99.90
48666;DHT22;34452;50.796;4.994;2023-11-21T00:45:54;10.00;99.90
48666;DHT22;34452;50.796;4.994;2023-11-21T00:48:19;10.00;99.90
48666;DHT22;34452;50.796;4.994;2023-11-21T00:50:45;10.00;99.90
48666;DHT22;34452;50.796;4.994;2023-11-21T00:53:11;10.00;99.90
48666;DHT22;34452;50.796;4.994;2023-11-21T00:55:37;10.00;99.90
48666;DHT22;34452;50.796;4.994;2023-11-21T00:58:06;9.90;99.90
48666;DHT22;34452;50.796;4.994;2023-11-21T01:00:33;10.00;99.90
48666;DHT22;34452;50.796;4.994;2023-11-21T01:03:00;10.00;99.90
48666;DHT22;34452;50.796;4.994;2023-11-21T01:05:26;10.00;99.90
48666;DHT22;34452;50.796;4.994;2023-11-21T01:07:52;9.90;99.90
48666;DHT22;34452;50.796;4.994;2023-11-21T01:10:18;10.00;99.90
48666;DHT22;34452;50.796;4.994;2023-11-21T01:12:44;10.00;99.90
48666;DHT22;34452;50.796;4.994;2023-11-21T01:15:09;9.90;99.90
48666;DHT22;34452;50.796;4.994;2023-11-21T01:17:38;9.90;99.90
48666;DHT22;34452;50.796;4.994;2023-11-21T01:20:04;9.90;99.90
48666;DHT22;34452;50.796;4.994;2023-11-21T01:22:37;9.90;99.90
48666;DHT22;34452;50.796;4.994;2023-11-21T01:25:04;9.90;99.90
48666;DHT22;34452;50.796;4.994;2023-11-21T01:27:35;9.90;99.90
48666;DHT22;34452;50.796;4.994;2023-11-21T01:30:02;9.80;99.90
48666;DHT22;34452;50.796;4.994;2023-11-21T01:32:28;9.80;99.90
48666;DHT22;34452;50.796;4.994;2023-11-21T01:34:55;9.70;99.90
48666;DHT22;34452;50.796;4.994;2023-11-21T01:37:21;9.60;99.90
48666;DHT22;34452;50.796;4.994;2023-11-21T01:39:47;9.50;99.90
48666;DHT22;34452;50.796;4.994;2023-11-21T01:42:13;9.40;99.90
48666;DHT22;34452;50.796;4.994;2023-11-21T01:44:39;9.30;99.90
48666;DHT22;34452;50.796;4.994;2023-11-21T01:47:06;9.20;99.90
48666;DHT22;34452;50.796;4.994;2023-11-21T01:49:33;9.10;99.90
48666;DHT22;34452;50.796;4.994;2023-11-21T01:51:59;9.00;99.90
48666;DHT22;34452;50.796;4.994;2023-11-21T01:54:25;9.00;99.90
48666;DHT22;34452;50.796;4.994;2023-11-21T01:56:51;8.90;99.90
48666;DHT22;34452;50.796;4.994;2023-11-21T01:59:21;8.90;99.90
48666;DHT22;34452;50.796;4.994;2023-11-21T02:01:48;8.80;99.90
48666;DHT22;34452;50.796;4.994;2023-11-21T02:04:16;8.80;99.90
48666;DHT22;34452;50.796;4.994;2023-11-21T02:06:41;8.70;99.90
48666;DHT22;34452;50.796;4.994;2023-11-21T02:09:07;8.70;99.90
48666;DHT22;34452;50.796;4.994;2023-11-21T02:11:34;8.60;99.90
48666;DHT22;34452;50.796;4.994;2023-11-21T02:14:00;8.60;99.90
48666;DHT22;34452;50.796;4.994;2023-11-21T02:16:27;8.50;99.90
48666;DHT22;34452;50.796;4.994;2023-11-21T02:18:53;8.60;99.90
48666;DHT22;34452;50.796;4.994;2023-11-21T02:21:19;8.60;99.90
48666;DHT22;34452;50.796;4.994;2023-11-21T02:23:45;8.60;99.90
48666;DHT22;34452;50.796;4.994;2023-11-21T02:26:13;8.60;99.90
48666;DHT22;34452;50.796;4.994;2023-11-21T02:28:39;8.50;99.90
48666;DHT22;34452;50.796;4.994;2023-11-21T02:31:05;8.50;99.90
48666;DHT22;34452;50.796;4.994;2023-11-21T02:33:33;8.60;99.90
48666;DHT22;34452;50.796;4.994;2023-11-21T02:36:01;8.50;99.90
48666;DHT22;34452;50.796;4.994;2023-11-21T02:38:27;8.50;99.90
48666;DHT22;34452;50.796;4.994;2023-11-21T02:40:53;8.50;99.90
48666;DHT22;34452;50.796;4.994;2023-11-21T02:43:21;8.50;99.90
48666;DHT22;34452;50.796;4.994;2023-11-21T02:45:46;8.60;99.90
48666;DHT22;34452;50.796;4.994;2023-11-21T02:48:12;8.60;99.90
48666;DHT22;34452;50.796;4.994;2023-11-21T02:50:38;8.60;99.90
48666;DHT22;34452;50.796;4.994;2023-11-21T02:53:04;8.60;99.90
48666;DHT22;34452;50.796;4.994;2023-11-21T02:55:31;8.70;99.90
48666;DHT22;34452;50.796;4.994;2023-11-21T02:58:00;8.70;99.90
48666;DHT22;34452;50.796;4.994;2023-11-21T03:00:26;8.70;99.90
48666;DHT22;34452;50.796;4.994;2023-11-21T03:02:54;8.70;99.90
48666;DHT22;34452;50.796;4.994;2023-11-21T03:05:21;8.70;99.90
48666;DHT22;34452;50.796;4.994;2023-11-21T03:07:47;8.60;99.90
48666;DHT22;34452;50.796;4.994;2023-11-21T03:10:12;8.50;99.90
48666;DHT22;34452;50.796;4.994;2023-11-21T03:12:39;8.50;99.90
48666;DHT22;34452;50.796;4.994;2023-11-21T03:15:06;8.40;99.90
48666;DHT22;34452;50.796;4.994;2023-11-21T03:17:32;8.40;99.90
48666;DHT22;34452;50.796;4.994;2023-11-21T03:20:00;8.30;99.90
48666;DHT22;34452;50.796;4.994;2023-11-21T03:22:26;8.30;99.90
48666;DHT22;34452;50.796;4.994;2023-11-21T03:24:52;8.30;99.90
48666;DHT22;34452;50.796;4.994;2023-11-21T03:27:18;8.30;99.90
48666;DHT22;34452;50.796;4.994;2023-11-21T03:29:44;8.30;99.90
48666;DHT22;34452;50.796;4.994;2023-11-21T03:32:12;8.30;99.90
48666;DHT22;34452;50.796;4.994;2023-11-21T03:34:54;8.30;99.90
48666;DHT22;34452;50.796;4.994;2023-11-21T03:37:21;8.30;99.90
48666;DHT22;34452;50.796;4.994;2023-11-21T03:39:47;8.30;99.90
48666;DHT22;34452;50.796;4.994;2023-11-21T03:42:12;8.40;99.90
48666;DHT22;34452;50.796;4.994;2023-11-21T03:44:39;8.40;99.90
48666;DHT22;34452;50.796;4.994;2023-11-21T03:47:05;8.50;99.90
48666;DHT22;34452;50.796;4.994;2023-11-21T03:49:31;8.50;99.90
48666;DHT22;34452;50.796;4.994;2023-11-21T03:51:56;8.60;99.90
48666;DHT22;34452;50.796;4.994;2023-11-21T03:54:24;8.60;99.90
48666;DHT22;34452;50.796;4.994;2023-11-21T03:56:49;8.60;99.90
48666;DHT22;34452;50.796;4.994;2023-11-21T03:59:15;8.60;99.90
48666;DHT22;34452;50.796;4.994;2023-11-21T04:01:41;8.70;99.90
48666;DHT22;34452;50.796;4.994;2023-11-21T04:04:06;8.70;99.90
48666;DHT22;34452;50.796;4.994;2023-11-21T04:06:32;8.70;99.90
48666;DHT22;34452;50.796;4.994;2023-11-21T04:08:58;8.70;99.90
48666;DHT22;34452;50.796;4.994;2023-11-21T04:11:24;8.70;99.90
48666;DHT22;34452;50.796;4.994;2023-11-21T04:13:50;8.70;99.90
48666;DHT22;34452;50.796;4.994;2023-11-21T04:16:16;8.60;99.90
48666;DHT22;34452;50.796;4.994;2023-11-21T04:18:42;8.60;99.90
48666;DHT22;34452;50.796;4.994;2023-11-21T04:21:08;8.60;99.90
48666;DHT22;34452;50.796;4.994;2023-11-21T04:23:34;8.50;99.90
48666;DHT22;34452;50.796;4.994;2023-11-21T04:26:01;8.40;99.90
48666;DHT22;34452;50.796;4.994;2023-11-21T04:28:28;8.40;99.90
48666;DHT22;34452;50.796;4.994;2023-11-21T04:30:53;8.40;99.90
48666;DHT22;34452;50.796;4.994;2023-11-21T04:33:19;8.30;99.90
48666;DHT22;34452;50.796;4.994;2023-11-21T04:35:45;8.30;99.90
48666;DHT22;34452;50.796;4.994;2023-11-21T04:38:11;8.30;99.90
48666;DHT22;34452;50.796;4.994;2023-11-21T04:40:37;8.30;99.90
48666;DHT22;34452;50.796;4.994;2023-11-21T04:43:03;8.30;99.90
48666;DHT22;34452;50.796;4.994;2023-11-21T04:45:29;8.30;99.90
48666;DHT22;34452;50.796;4.994;2023-11-21T04:47:55;8.30;99.90
48666;DHT22;34452;50.796;4.994;2023-11-21T04:50:21;8.30;99.90
48666;DHT22;34452;50.796;4.994;2023-11-21T04:52:47;8.30;99.90
48666;DHT22;34452;50.796;4.994;2023-11-21T04:55:13;8.30;99.90
48666;DHT22;34452;50.796;4.994;2023-11-21T04:57:39;8.30;99.90
48666;DHT22;34452;50.796;4.994;2023-11-21T05:00:09;8.30;99.90
48666;DHT22;34452;50.796;4.994;2023-11-21T05:02:35;8.40;99.90
48666;DHT22;34452;50.796;4.994;2023-11-21T05:05:02;8.40;99.90
48666;DHT22;34452;50.796;4.994;2023-11-21T05:07:27;8.50;99.90
48666;DHT22;34452;50.796;4.994;2023-11-21T05:09:55;8.50;99.90
48666;DHT22;34452;50.796;4.994;2023-11-21T05:12:22;8.40;99.90
48666;DHT22;34452;50.796;4.994;2023-11-21T05:14:49;8.50;99.90
48666;DHT22;34452;50.796;4.994;2023-11-21T05:17:15;8.50;99.90
48666;DHT22;34452;50.796;4.994;2023-11-21T05:19:40;8.50;99.90
48666;DHT22;34452;50.796;4.994;2023-11-21T05:22:06;8.60;99.90
48666;DHT22;34452;50.796;4.994;2023-11-21T05:24:34;8.60;99.90
48666;DHT22;34452;50.796;4.994;2023-11-21T05:27:00;8.60;99.90
48666;DHT22;34452;50.796;4.994;2023-11-21T05:29:26;8.60;99.90
48666;DHT22;34452;50.796;4.994;2023-11-21T05:31:52;8.70;99.90
48666;DHT22;34452;50.796;4.994;2023-11-21T05:34:18;8.70;99.90
48666;DHT22;34452;50.796;4.994;2023-11-21T05:36:46;8.70;99.90
48666;DHT22;34452;50.796;4.994;2023-11-21T05:39:12;8.70;99.90
48666;DHT22;34452;50.796;4.994;2023-11-21T05:41:38;8.70;99.90
48666;DHT22;34452;50.796;4.994;2023-11-21T05:44:04;8.70;99.90
48666;DHT22;34452;50.796;4.994;2023-11-21T05:46:30;8.80;99.90
48666;DHT22;34452;50.796;4.994;2023-11-21T05:48:56;8.80;99.90
48666;DHT22;34452;50.796;4.994;2023-11-21T05:51:22;8.80;99.90
48666;DHT22;34452;50.796;4.994;2023-11-21T05:53:48;8.80;99.90
48666;DHT22;34452;50.796;4.994;2023-11-21T05:56:13;8.80;99.90
48666;DHT22;34452;50.796;4.994;2023-11-21T05:58:39;8.80;99.90
48666;DHT22;34452;50.796;4.994;2023-11-21T06:01:06;8.90;99.90
48666;DHT22;34452;50.796;4.994;2023-11-21T06:03:35;8.90;99.90
48666;DHT22;34452;50.796;4.994;2023-11-21T06:06:02;8.90;99.90
48666;DHT22;34452;50.796;4.994;2023-11-21T06:08:30;8.90;99.90
48666;DHT22;34452;50.796;4.994;2023-11-21T06:10:55;8.90;99.90
48666;DHT22;34452;50.796;4.994;2023-11-21T06:13:21;8.90;99.90
48666;DHT22;34452;50.796;4.994;2023-11-21T06:15:50;8.90;99.90
48666;DHT22;34452;50.796;4.994;2023-11-21T06:18:16;8.80;99.90
48666;DHT22;34452;50.796;4.994;2023-11-21T06:20:45;8.80;99.90
48666;DHT22;34452;50.796;4.994;2023-11-21T06:23:11;8.80;99.90
48666;DHT22;34452;50.796;4.994;2023-11-21T06:25:37;8.80;99.90
48666;DHT22;34452;50.796;4.994;2023-11-21T06:28:03;8.90;99.90
48666;DHT22;34452;50.796;4.994;2023-11-21T06:30:29;8.80;99.90
48666;DHT22;34452;50.796;4.994;2023-11-21T06:32:55;8.80;99.90
48666;DHT22;34452;50.796;4.994;2023-11-21T06:35:21;8.90;99.90
48666;DHT22;34452;50.796;4.994;2023-11-21T06:37:47;8.90;99.90
48666;DHT22;34452;50.796;4.994;2023-11-21T06:40:14;8.90;99.90
48666;DHT22;34452;50.796;4.994;2023-11-21T06:42:44;8.90;99.90
48666;DHT22;34452;50.796;4.994;2023-11-21T06:45:10;8.90;99.90
48666;DHT22;34452;50.796;4.994;2023-11-21T06:47:37;8.90;99.90
48666;DHT22;34452;50.796;4.994;2023-11-21T06:50:03;8.90;99.90
48666;DHT22;34452;50.796;4.994;2023-11-21T06:52:29;8.90;99.90
48666;DHT22;34452;50.796;4.994;2023-11-21T06:54:55;8.90;99.90
48666;DHT22;34452;50.796;4.994;2023-11-21T06:57:23;8.90;99.90
48666;DHT22;34452;50.796;4.994;2023-11-21T06:59:49;9.00;99.90
48666;DHT22;34452;50.796;4.994;2023-11-21T07:02:16;9.00;99.90
48666;DHT22;34452;50.796;4.994;2023-11-21T07:04:45;9.00;99.90
48666;DHT22;34452;50.796;4.994;2023-11-21T07:07:11;9.00;99.90
48666;DHT22;34452;50.796;4.994;2023-11-21T07:09:38;9.10;99.90
48666;DHT22;34452;50.796;4.994;2023-11-21T07:12:04;9.10;99.90
48666;DHT22;34452;50.796;4.994;2023-11-21T07:14:33;9.10;99.90
48666;DHT22;34452;50.796;4.994;2023-11-21T07:16:59;9.10;99.90
48666;DHT22;34452;50.796;4.994;2023-11-21T07:19:26;9.10;99.90
48666;DHT22;34452;50.796;4.994;2023-11-21T07:21:52;9.20;99.90
48666;DHT22;34452;50.796;4.994;2023-11-21T07:24:18;9.20;99.90
48666;DHT22;34452;50.796;4.994;2023-11-21T07:26:44;9.20;99.90
48666;DHT22;34452;50.796;4.994;2023-11-21T07:29:10;9.20;99.90
48666;DHT22;34452;50.796;4.994;2023-11-21T07:31:37;9.20;99.90
48666;DHT22;34452;50.796;4.994;2023-11-21T07:34:03;9.20;99.90
48666;DHT22;34452;50.796;4.994;2023-11-21T07:36:29;9.30;99.90
48666;DHT22;34452;50.796;4.994;2023-11-21T07:38:55;9.20;99.90
48666;DHT22;34452;50.796;4.994;2023-11-21T07:41:20;9.20;99.90
48666;DHT22;34452;50.796;4.994;2023-11-21T07:43:47;9.30;99.90
48666;DHT22;34452;50.796;4.994;2023-11-21T07:46:14;9.30;99.90
48666;DHT22;34452;50.796;4.994;2023-11-21T07:48:40;9.40;99.90
48666;DHT22;34452;50.796;4.994;2023-11-21T07:51:07;9.40;99.90
48666;DHT22;34452;50.796;4.994;2023-11-21T07:53:34;9.40;99.90
48666;DHT22;34452;50.796;4.994;2023-11-21T07:56:04;9.50;99.90
48666;DHT22;34452;50.796;4.994;2023-11-21T07:58:30;9.40;99.90
48666;DHT22;34452;50.796;4.994;2023-11-21T08:00:59;9.40;99.90
48666;DHT22;34452;50.796;4.994;2023-11-21T08:03:25;9.40;99.90
48666;DHT22;34452;50.796;4.994;2023-11-21T08:05:52;9.50;99.90
48666;DHT22;34452;50.796;4.994;2023-11-21T08:08:18;9.50;99.90
48666;DHT22;34452;50.796;4.994;2023-11-21T08:10:45;9.50;99.90
48666;DHT22;34452;50.796;4.994;2023-11-21T08:13:22;9.50;99.90
48666;DHT22;34452;50.796;4.994;2023-11-21T08:15:48;9.60;99.90
48666;DHT22;34452;50.796;4.994;2023-11-21T08:18:15;9.60;99.90
48666;DHT22;34452;50.796;4.994;2023-11-21T08:20:43;9.60;99.90
48666;DHT22;34452;50.796;4.994;2023-11-21T08:23:16;9.60;99.90
48666;DHT22;34452;50.796;4.994;2023-11-21T08:25:45;9.70;99.90
48666;DHT22;34452;50.796;4.994;2023-11-21T08:28:12;9.70;99.90
48666;DHT22;34452;50.796;4.994;2023-11-21T08:30:41;9.70;99.90
48666;DHT22;34452;50.796;4.994;2023-11-21T08:33:07;9.70;99.90
48666;DHT22;34452;50.796;4.994;2023-11-21T08:35:34;9.80;99.90
48666;DHT22;34452;50.796;4.994;2023-11-21T08:38:00;9.80;99.90
48666;DHT22;34452;50.796;4.994;2023-11-21T08:40:26;9.80;99.90
48666;DHT22;34452;50.796;4.994;2023-11-21T08:42:52;9.90;99.90
48666;DHT22;34452;50.796;4.994;2023-11-21T08:45:19;9.90;99.90
48666;DHT22;34452;50.796;4.994;2023-11-21T08:47:45;10.00;99.90
48666;DHT22;34452;50.796;4.994;2023-11-21T08:50:11;10.00;99.90
48666;DHT22;34452;50.796;4.994;2023-11-21T08:52:38;10.10;99.90
48666;DHT22;34452;50.796;4.994;2023-11-21T08:55:05;10.10;99.90
48666;DHT22;34452;50.796;4.994;2023-11-21T08:57:35;10.10;99.90
48666;DHT22;34452;50.796;4.994;2023-11-21T09:00:04;10.20;99.90
48666;DHT22;34452;50.796;4.994;2023-11-21T09:02:39;10.30;99.90
48666;DHT22;34452;50.796;4.994;2023-11-21T09:05:08;10.30;99.90
48666;DHT22;34452;50.796;4.994;2023-11-21T09:07:35;10.40;99.90
48666;DHT22;34452;50.796;4.994;2023-11-21T09:10:01;10.40;99.90
48666;DHT22;34452;50.796;4.994;2023-11-21T09:12:27;10.40;99.90
48666;DHT22;34452;50.796;4.994;2023-11-21T09:14:54;10.50;99.90
48666;DHT22;34452;50.796;4.994;2023-11-21T09:17:20;10.50;99.90
48666;DHT22;34452;50.796;4.994;2023-11-21T09:19:45;10.50;99.90
48666;DHT22;34452;50.796;4.994;2023-11-21T09:22:16;10.60;99.90
48666;DHT22;34452;50.796;4.994;2023-11-21T09:24:42;10.60;99.90
48666;DHT22;34452;50.796;4.994;2023-11-21T09:27:08;10.70;99.90
48666;DHT22;34452;50.796;4.994;2023-11-21T09:29:35;10.80;99.90
48666;DHT22;34452;50.796;4.994;2023-11-21T09:32:05;10.90;99.90
48666;DHT22;34452;50.796;4.994;2023-11-21T09:34:38;11.10;99.90
48666;DHT22;34452;50.796;4.994;2023-11-21T09:37:06;11.10;99.90
48666;DHT22;34452;50.796;4.994;2023-11-21T09:39:33;11.20;99.90
48666;DHT22;34452;50.796;4.994;2023-11-21T09:42:10;11.40;99.90
48666;DHT22;34452;50.796;4.994;2023-11-21T09:44:45;11.40;99.90
48666;DHT22;34452;50.796;4.994;2023-11-21T09:47:14;11.40;99.90
48666;DHT22;34452;50.796;4.994;2023-11-21T09:49:45;11.40;99.90
48666;DHT22;34452;50.796;4.994;2023-11-21T09:52:22;11.50;99.90
48666;DHT22;34452;50.796;4.994;2023-11-21T09:54:51;11.50;99.90
48666;DHT22;34452;50.796;4.994;2023-11-21T09:57:20;11.60;99.90
48666;DHT22;34452;50.796;4.994;2023-11-21T09:59:51;11.60;99.90
48666;DHT22;34452;50.796;4.994;2023-11-21T10:02:27;11.70;99.90
48666;DHT22;34452;50.796;4.994;2023-11-21T10:04:58;11.80;99.90
48666;DHT22;34452;50.796;4.994;2023-11-21T10:07:26;11.90;99.90
48666;DHT22;34452;50.796;4.994;2023-11-21T10:09:54;12.00;99.90
48666;DHT22;34452;50.796;4.994;2023-11-21T10:12:22;12.00;99.90
48666;DHT22;34452;50.796;4.994;2023-11-21T10:14:51;12.00;99.90
48666;DHT22;34452;50.796;4.994;2023-11-21T10:17:18;12.00;99.90
48666;DHT22;34452;50.796;4.994;2023-11-21T10:19:47;12.00;99.90
48666;DHT22;34452;50.796;4.994;2023-11-21T10:22:15;12.00;99.90
48666;DHT22;34452;50.796;4.994;2023-11-21T10:24:42;12.10;99.90
48666;DHT22;34452;50.796;4.994;2023-11-21T10:27:09;12.10;99.90
48666;DHT22;34452;50.796;4.994;2023-11-21T10:29:35;12.10;99.90
48666;DHT22;34452;50.796;4.994;2023-11-21T10:32:04;12.10;99.90
48666;DHT22;34452;50.796;4.994;2023-11-21T10:34:31;12.10;99.90
48666;DHT22;34452;50.796;4.994;2023-11-21T10:36:57;12.10;99.90
48666;DHT22;34452;50.796;4.994;2023-11-21T10:39:24;12.00;99.90
48666;DHT22;34452;50.796;4.994;2023-11-21T10:41:54;12.00;99.90
48666;DHT22;34452;50.796;4.994;2023-11-21T10:44:21;12.00;99.90
48666;DHT22;34452;50.796;4.994;2023-11-21T10:46:50;12.10;99.90
48666;DHT22;34452;50.796;4.994;2023-11-21T10:49:20;12.10;99.90
48666;DHT22;34452;50.796;4.994;2023-11-21T10:51:46;12.10;99.90
48666;DHT22;34452;50.796;4.994;2023-11-21T10:54:20;12.20;99.90
48666;DHT22;34452;50.796;4.994;2023-11-21T10:56:49;12.20;99.90
48666;DHT22;34452;50.796;4.994;2023-11-21T10:59:17;12.30;99.90
48666;DHT22;34452;50.796;4.994;2023-11-21T11:01:45;12.30;99.90
48666;DHT22;34452;50.796;4.994;2023-11-21T11:04:14;12.30;99.90
48666;DHT22;34452;50.796;4.994;2023-11-21T11:06:51;12.40;99.90
48666;DHT22;34452;50.796;4.994;2023-11-21T11:09:18;12.40;99.90
48666;DHT22;34452;50.796;4.994;2023-11-21T11:11:45;12.30;99.90
48666;DHT22;34452;50.796;4.994;2023-11-21T11:14:12;12.30;99.90
48666;DHT22;34452;50.796;4.994;2023-11-21T11:16:41;12.30;99.90
48666;DHT22;34452;50.796;4.994;2023-11-21T11:19:09;12.30;99.90
48666;DHT22;34452;50.796;4.994;2023-11-21T11:35:11;12.40;99.90
48666;DHT22;34452;50.796;4.994;2023-11-21T11:37:43;12.40;99.90
48666;DHT22;34452;50.796;4.994;2023-11-21T11:40:11;12.40;99.90
48666;DHT22;34452;50.796;4.994;2023-11-21T11:42:37;12.30;99.90
48666;DHT22;34452;50.796;4.994;2023-11-21T11:45:17;12.30;99.90
48666;DHT22;34452;50.796;4.994;2023-11-21T11:47:43;12.20;99.90
48666;DHT22;34452;50.796;4.994;2023-11-21T11:50:11;12.20;99.90
48666;DHT22;34452;50.796;4.994;2023-11-21T11:53:12;12.10;99.90
48666;DHT22;34452;50.796;4.994;2023-11-21T11:55:38;12.10;99.90
48666;DHT22;34452;50.796;4.994;2023-11-21T11:58:06;12.00;99.90
48666;DHT22;34452;50.796;4.994;2023-11-21T12:02:59;11.90;99.90
48666;DHT22;34452;50.796;4.994;2023-11-21T12:05:27;11.90;99.90
48666;DHT22;34452;50.796;4.994;2023-11-21T12:07:56;11.80;99.90
48666;DHT22;34452;50.796;4.994;2023-11-21T12:10:23;11.80;99.90
48666;DHT22;34452;50.796;4.994;2023-11-21T12:13:01;11.80;99.90
48666;DHT22;34452;50.796;4.994;2023-11-21T12:15:28;11.80;99.90
48666;DHT22;34452;50.796;4.994;2023-11-21T12:17:56;11.80;99.90
48666;DHT22;34452;50.796;4.994;2023-11-21T12:20:23;11.80;99.90
48666;DHT22;34452;50.796;4.994;2023-11-21T12:22:51;11.80;99.90
48666;DHT22;34452;50.796;4.994;2023-11-21T12:25:19;11.80;99.90
48666;DHT22;34452;50.796;4.994;2023-11-21T12:27:46;11.80;99.90
48666;DHT22;34452;50.796;4.994;2023-11-21T12:30:13;11.70;99.90
48666;DHT22;34452;50.796;4.994;2023-11-21T12:32:43;11.70;99.90
48666;DHT22;34452;50.796;4.994;2023-11-21T12:35:12;11.70;99.90
48666;DHT22;34452;50.796;4.994;2023-11-21T12:37:39;11.60;99.90
48666;DHT22;34452;50.796;4.994;2023-11-21T12:40:08;11.60;99.90
48666;DHT22;34452;50.796;4.994;2023-11-21T12:42:39;11.60;99.90
48666;DHT22;34452;50.796;4.994;2023-11-21T12:45:27;11.60;99.90
48666;DHT22;34452;50.796;4.994;2023-11-21T12:48:04;11.70;99.90
48666;DHT22;34452;50.796;4.994;2023-11-21T12:50:34;11.70;99.90
48666;DHT22;34452;50.796;4.994;2023-11-21T12:53:10;11.70;99.90
48666;DHT22;34452;50.796;4.994;2023-11-21T12:55:43;11.70;99.90
48666;DHT22;34452;50.796;4.994;2023-11-21T12:58:10;11.70;99.90
48666;DHT22;34452;50.796;4.994;2023-11-21T13:00:38;11.70;99.90
48666;DHT22;34452;50.796;4.994;2023-11-21T13:03:06;11.70;99.90
48666;DHT22;34452;50.796;4.994;2023-11-21T13:05:36;11.70;99.90
48666;DHT22;34452;50.796;4.994;2023-11-21T13:08:08;11.80;99.90
48666;DHT22;34452;50.796;4.994;2023-11-21T13:10:39;11.80;99.90
48666;DHT22;34452;50.796;4.994;2023-11-21T13:13:07;11.80;99.90
48666;DHT22;34452;50.796;4.994;2023-11-21T13:15:39;11.90;99.90
48666;DHT22;34452;50.796;4.994;2023-11-21T13:18:07;12.00;99.90
48666;DHT22;34452;50.796;4.994;2023-11-21T13:20:32;12.10;99.90
48666;DHT22;34452;50.796;4.994;2023-11-21T13:22:59;12.10;99.90
48666;DHT22;34452;50.796;4.994;2023-11-21T13:25:29;12.10;99.90
48666;DHT22;34452;50.796;4.994;2023-11-21T13:27:57;12.20;99.90
48666;DHT22;34452;50.796;4.994;2023-11-21T13:30:24;12.30;99.90
48666;DHT22;34452;50.796;4.994;2023-11-21T13:33:00;12.50;99.90
48666;DHT22;34452;50.796;4.994;2023-11-21T13:35:32;12.70;99.90
48666;DHT22;34452;50.796;4.994;2023-11-21T13:38:11;12.60;99.90
48666;DHT22;34452;50.796;4.994;2023-11-21T13:40:38;12.60;99.90
48666;DHT22;34452;50.796;4.994;2023-11-21T13:43:14;12.60;99.90
48666;DHT22;34452;50.796;4.994;2023-11-21T13:45:40;12.60;99.90
48666;DHT22;34452;50.796;4.994;2023-11-21T13:48:08;12.50;99.90
48666;DHT22;34452;50.796;4.994;2023-11-21T13:50:40;12.40;99.90
48666;DHT22;34452;50.796;4.994;2023-11-21T13:53:14;12.40;99.90
48666;DHT22;34452;50.796;4.994;2023-11-21T13:55:49;12.40;99.90
48666;DHT22;34452;50.796;4.994;2023-11-21T13:58:16;12.40;99.90
48666;DHT22;34452;50.796;4.994;2023-11-21T14:00:49;12.40;99.90
48666;DHT22;34452;50.796;4.994;2023-11-21T14:03:22;12.40;99.90
48666;DHT22;34452;50.796;4.994;2023-11-21T14:05:51;12.40;99.90
48666;DHT22;34452;50.796;4.994;2023-11-21T14:08:22;12.30;99.90
48666;DHT22;34452;50.796;4.994;2023-11-21T14:10:57;12.30;99.90
48666;DHT22;34452;50.796;4.994;2023-11-21T14:13:28;12.20;99.90
48666;DHT22;34452;50.796;4.994;2023-11-21T14:15:53;12.20;99.90
48666;DHT22;34452;50.796;4.994;2023-11-21T14:18:28;12.10;99.90
48666;DHT22;34452;50.796;4.994;2023-11-21T14:21:07;12.10;99.90
48666;DHT22;34452;50.796;4.994;2023-11-21T14:23:35;12.00;99.90
48666;DHT22;34452;50.796;4.994;2023-11-21T14:26:04;12.00;99.90
48666;DHT22;34452;50.796;4.994;2023-11-21T14:28:31;11.90;99.90
48666;DHT22;34452;50.796;4.994;2023-11-21T14:30:57;11.90;99.90
48666;DHT22;34452;50.796;4.994;2023-11-21T14:33:23;11.90;99.90
48666;DHT22;34452;50.796;4.994;2023-11-21T14:35:49;11.90;99.90
48666;DHT22;34452;50.796;4.994;2023-11-21T14:38:15;11.90;99.90
48666;DHT22;34452;50.796;4.994;2023-11-21T14:40:41;11.90;99.90
48666;DHT22;34452;50.796;4.994;2023-11-21T14:43:07;11.90;99.90
48666;DHT22;34452;50.796;4.994;2023-11-21T14:45:34;11.90;99.90
48666;DHT22;34452;50.796;4.994;2023-11-21T14:48:00;11.90;99.90
48666;DHT22;34452;50.796;4.994;2023-11-21T14:50:33;11.90;99.90
48666;DHT22;34452;50.796;4.994;2023-11-21T14:53:12;11.80;99.90
48666;DHT22;34452;50.796;4.994;2023-11-21T14:55:41;11.80;99.90
48666;DHT22;34452;50.796;4.994;2023-11-21T14:58:13;11.70;99.90
48666;DHT22;34452;50.796;4.994;2023-11-21T15:00:47;11.70;99.90
48666;DHT22;34452;50.796;4.994;2023-11-21T15:03:13;11.70;99.90
48666;DHT22;34452;50.796;4.994;2023-11-21T15:06:01;11.60;99.90
48666;DHT22;34452;50.796;4.994;2023-11-21T15:08:44;11.60;99.90
48666;DHT22;34452;50.796;4.994;2023-11-21T15:11:11;11.50;99.90
48666;DHT22;34452;50.796;4.994;2023-11-21T15:13:41;11.50;99.90
48666;DHT22;34452;50.796;4.994;2023-11-21T15:16:08;11.50;99.90
48666;DHT22;34452;50.796;4.994;2023-11-21T15:18:37;11.50;99.90
48666;DHT22;34452;50.796;4.994;2023-11-21T15:21:04;11.40;99.90
48666;DHT22;34452;50.796;4.994;2023-11-21T15:23:30;11.40;99.90
48666;DHT22;34452;50.796;4.994;2023-11-21T15:26:00;11.40;99.90
48666;DHT22;34452;50.796;4.994;2023-11-21T15:28:29;11.40;99.90
48666;DHT22;34452;50.796;4.994;2023-11-21T15:30:54;11.40;99.90
48666;DHT22;34452;50.796;4.994;2023-11-21T15:33:21;11.40;99.90
48666;DHT22;34452;50.796;4.994;2023-11-21T15:35:47;11.40;99.90
48666;DHT22;34452;50.796;4.994;2023-11-21T15:38:12;11.30;99.90
48666;DHT22;34452;50.796;4.994;2023-11-21T15:40:39;11.30;99.90
48666;DHT22;34452;50.796;4.994;2023-11-21T15:43:05;11.30;99.90
48666;DHT22;34452;50.796;4.994;2023-11-21T15:45:32;11.30;99.90
48666;DHT22;34452;50.796;4.994;2023-11-21T15:47:58;11.30;99.90
48666;DHT22;34452;50.796;4.994;2023-11-21T15:50:24;11.30;99.90
48666;DHT22;34452;50.796;4.994;2023-11-21T15:52:51;11.30;99.90
48666;DHT22;34452;50.796;4.994;2023-11-21T15:55:17;11.20;99.90
48666;DHT22;34452;50.796;4.994;2023-11-21T15:57:43;11.30;99.90
48666;DHT22;34452;50.796;4.994;2023-11-21T16:00:09;11.30;99.90